createdAt,value
2023-04-26T00:01:34.893Z,1.90
2023-04-26T00:04:02.536Z,1.80
2023-04-26T00:06:29.997Z,1.80
2023-04-26T00:08:57.282Z,1.90
2023-04-26T00:11:24.501Z,1.80
2023-04-26T00:13:52.254Z,1.90
2023-04-26T00:16:19.581Z,1.80
2023-04-26T00:18:46.878Z,1.80
2023-04-26T00:21:14.419Z,1.70
2023-04-26T00:23:41.772Z,1.60
2023-04-26T00:26:09.039Z,1.60
2023-04-26T00:28:36.392Z,1.70
2023-04-26T00:31:03.622Z,1.80
2023-04-26T00:33:30.916Z,1.50
2023-04-26T00:35:58.309Z,1.60
2023-04-26T00:38:25.554Z,1.50
2023-04-26T00:40:52.751Z,1.40
2023-04-26T00:43:20.039Z,1.30
2023-04-26T00:45:47.515Z,1.40
2023-04-26T00:48:16.400Z,1.40
2023-04-26T00:50:44.297Z,1.50
2023-04-26T00:53:12.916Z,1.60
2023-04-26T00:55:41.738Z,1.60
2023-04-26T00:58:09.568Z,1.60
2023-04-26T01:00:37.087Z,1.50
2023-04-26T01:03:04.661Z,1.50
2023-04-26T01:05:32.342Z,1.50
2023-04-26T01:08:00.450Z,1.50
2023-04-26T01:10:28.927Z,1.60
2023-04-26T01:12:57.289Z,1.70
2023-04-26T01:15:26.494Z,1.70
2023-04-26T01:17:54.044Z,1.50
2023-04-26T01:20:21.268Z,1.40
2023-04-26T01:22:48.566Z,1.30
2023-04-26T01:25:16.889Z,1.50
2023-04-26T01:27:44.300Z,1.40
2023-04-26T01:30:12.438Z,1.30
2023-04-26T01:32:39.757Z,1.30
2023-04-26T01:35:07.543Z,1.30
2023-04-26T01:37:34.833Z,1.20
2023-04-26T01:40:02.067Z,1.30
2023-04-26T01:42:29.339Z,1.20
2023-04-26T01:44:56.721Z,1.10
2023-04-26T01:49:51.713Z,1.10
2023-04-26T01:52:18.954Z,1.00
2023-04-26T01:54:46.191Z,1.20
2023-04-26T01:57:13.426Z,1.20
2023-04-26T01:59:40.931Z,1.10
2023-04-26T02:02:08.374Z,1.00
2023-04-26T02:04:36.349Z,1.10
2023-04-26T02:07:03.606Z,1.00
2023-04-26T02:09:30.858Z,1.00
2023-04-26T02:11:58.127Z,1.10
2023-04-26T02:14:25.334Z,1.00
2023-04-26T02:16:52.600Z,0.90
2023-04-26T02:19:19.970Z,1.00
2023-04-26T02:21:58.503Z,1.20
2023-04-26T02:24:26.214Z,1.20
2023-04-26T02:26:53.512Z,1.10
2023-04-26T02:29:26.890Z,1.10
2023-04-26T02:31:58.623Z,1.10
2023-04-26T02:34:26.261Z,1.00
2023-04-26T02:36:53.520Z,1.10
2023-04-26T02:39:20.757Z,1.20
2023-04-26T02:41:47.983Z,1.10
2023-04-26T02:44:15.312Z,1.20
2023-04-26T02:46:42.773Z,1.30
2023-04-26T02:49:10.179Z,1.20
2023-04-26T02:51:37.779Z,1.20
2023-04-26T02:54:06.959Z,1.20
2023-04-26T02:56:34.508Z,1.20
2023-04-26T02:59:01.765Z,1.20
2023-04-26T03:01:29.075Z,1.20
2023-04-26T03:03:56.457Z,1.30
2023-04-26T03:06:23.883Z,1.30
2023-04-26T03:08:51.395Z,1.20
2023-04-26T03:11:18.785Z,1.20
2023-04-26T03:13:45.980Z,1.30
2023-04-26T03:16:13.447Z,1.30
2023-04-26T03:18:40.782Z,1.30
2023-04-26T03:21:08.091Z,1.20
2023-04-26T03:23:35.538Z,1.20
2023-04-26T03:26:02.997Z,1.20
2023-04-26T03:28:30.693Z,1.20
2023-04-26T03:30:59.675Z,1.20
2023-04-26T03:33:27.482Z,1.20
2023-04-26T03:35:54.719Z,1.30
2023-04-26T03:38:21.958Z,1.20
2023-04-26T03:40:49.478Z,1.10
2023-04-26T03:43:16.691Z,1.10
2023-04-26T03:45:48.065Z,1.10
2023-04-26T03:48:16.056Z,1.10
2023-04-26T03:50:43.716Z,1.10
2023-04-26T03:53:15.193Z,1.10
2023-04-26T03:55:42.571Z,1.10
2023-04-26T03:58:09.944Z,1.20
2023-04-26T04:00:41.381Z,1.20
2023-04-26T04:03:08.897Z,1.10
2023-04-26T04:05:36.729Z,1.10
2023-04-26T04:08:04.898Z,1.10
2023-04-26T04:10:32.228Z,1.10
2023-04-26T04:12:59.679Z,1.00
2023-04-26T04:15:27.143Z,1.10
2023-04-26T04:17:54.669Z,1.10
2023-04-26T04:20:22.036Z,1.10
2023-04-26T04:22:49.349Z,1.10
2023-04-26T04:25:16.587Z,1.20
2023-04-26T04:27:43.891Z,1.20
2023-04-26T04:30:11.766Z,1.20
2023-04-26T04:32:39.007Z,1.20
2023-04-26T04:35:07.543Z,1.20
2023-04-26T04:37:34.893Z,1.20
2023-04-26T04:40:02.410Z,1.30
2023-04-26T04:42:29.686Z,1.20
2023-04-26T04:44:57.204Z,1.30
2023-04-26T04:47:24.520Z,1.20
2023-04-26T04:49:51.796Z,1.30
2023-04-26T04:52:19.270Z,1.30
2023-04-26T04:54:46.726Z,1.40
2023-04-26T04:57:14.263Z,1.30
2023-04-26T04:59:41.909Z,1.30
2023-04-26T05:02:09.243Z,1.30
2023-04-26T05:04:37.774Z,1.50
2023-04-26T05:07:05.448Z,1.40
2023-04-26T05:09:32.675Z,1.40
2023-04-26T05:11:59.955Z,1.40
2023-04-26T05:14:27.639Z,1.40
2023-04-26T05:16:55.023Z,1.50
2023-04-26T05:19:22.773Z,1.50
2023-04-26T05:21:50.031Z,1.50
2023-04-26T05:24:17.286Z,1.50
2023-04-26T05:26:44.600Z,1.40
2023-04-26T05:29:11.988Z,1.40
2023-04-26T05:31:39.269Z,1.50
2023-04-26T05:34:06.526Z,1.60
2023-04-26T05:36:33.858Z,1.60
2023-04-26T05:39:01.131Z,1.70
2023-04-26T05:41:28.386Z,1.70
2023-04-26T05:43:55.705Z,1.80
2023-04-26T05:46:23.352Z,1.90
2023-04-26T05:48:50.706Z,1.90
2023-04-26T05:51:17.890Z,1.90
2023-04-26T05:53:45.124Z,2.00
2023-04-26T05:56:12.374Z,2.10
2023-04-26T05:58:39.727Z,2.10
2023-04-26T06:01:06.982Z,2.10
2023-04-26T06:03:34.629Z,2.20
2023-04-26T06:06:02.313Z,2.40
2023-04-26T06:08:29.743Z,2.50
2023-04-26T06:10:56.985Z,2.60
2023-04-26T06:13:24.365Z,2.70
2023-04-26T06:15:54.670Z,2.80
2023-04-26T06:18:22.073Z,2.80
2023-04-26T06:20:49.414Z,3.00
2023-04-26T06:25:44.192Z,3.20
2023-04-26T06:28:13.071Z,3.30
2023-04-26T06:30:40.434Z,3.40
2023-04-26T06:33:07.735Z,3.50
2023-04-26T06:35:43.119Z,3.60
2023-04-26T06:38:10.420Z,3.60
2023-04-26T06:40:37.638Z,3.70
2023-04-26T06:43:05.104Z,3.80
2023-04-26T06:45:32.650Z,3.90
2023-04-26T06:47:59.993Z,4.00
2023-04-26T06:50:27.864Z,4.10
2023-04-26T06:52:55.440Z,4.20
2023-04-26T06:55:22.931Z,4.20
2023-04-26T06:57:50.788Z,4.30
2023-04-26T07:00:18.228Z,4.40
2023-04-26T07:02:46.119Z,4.50
2023-04-26T07:05:13.878Z,4.60
2023-04-26T07:07:41.357Z,4.60
2023-04-26T07:10:10.448Z,4.70
2023-04-26T07:12:37.756Z,4.80
2023-04-26T07:15:05.866Z,4.90
2023-04-26T07:17:33.462Z,5.00
2023-04-26T07:20:00.895Z,5.00
2023-04-26T07:24:55.997Z,5.10
2023-04-26T07:27:24.153Z,5.20
2023-04-26T07:29:54.985Z,5.20
2023-04-26T07:32:22.672Z,5.30
2023-04-26T07:34:49.959Z,5.30
2023-04-26T07:37:17.270Z,5.40
2023-04-26T07:39:44.690Z,5.50
2023-04-26T07:42:12.191Z,5.60
2023-04-26T07:44:39.434Z,5.70
2023-04-26T07:47:13.015Z,5.70
2023-04-26T07:49:40.685Z,5.80
2023-04-26T07:52:09.697Z,5.80
2023-04-26T07:54:37.069Z,6.00
2023-04-26T07:57:04.518Z,6.10
2023-04-26T07:59:32.415Z,6.10
2023-04-26T08:01:59.638Z,6.20
2023-04-26T08:04:34.785Z,6.30
2023-04-26T08:07:02.406Z,6.30
2023-04-26T08:09:30.330Z,6.30
2023-04-26T08:11:58.264Z,6.30
2023-04-26T08:14:25.542Z,6.30
2023-04-26T08:16:52.870Z,6.40
2023-04-26T08:19:20.163Z,6.50
2023-04-26T08:21:47.556Z,6.40
2023-04-26T08:24:14.871Z,6.50
2023-04-26T08:26:42.322Z,6.60
2023-04-26T08:29:10.177Z,6.60
2023-04-26T08:31:37.483Z,6.60
2023-04-26T08:34:04.772Z,6.70
2023-04-26T08:36:35.919Z,6.70
2023-04-26T08:39:03.830Z,6.80
2023-04-26T08:41:37.795Z,6.90
2023-04-26T08:44:09.162Z,7.00
2023-04-26T08:47:36.881Z,7.00
2023-04-26T08:50:05.915Z,7.10
2023-04-26T08:52:35.349Z,7.10
2023-04-26T08:55:05.205Z,7.10
2023-04-26T08:57:33.170Z,7.10
2023-04-26T09:00:03.299Z,7.30
2023-04-26T09:02:31.148Z,7.40
2023-04-26T09:04:58.722Z,7.40
2023-04-26T09:07:51.104Z,7.50
2023-04-26T09:10:22.262Z,7.50
2023-04-26T09:12:53.917Z,7.50
2023-04-26T09:15:23.270Z,7.40
2023-04-26T09:17:51.171Z,7.50
2023-04-26T09:20:31.414Z,7.60
2023-04-26T09:23:07.569Z,7.60
2023-04-26T09:25:36.029Z,7.50
2023-04-26T09:28:18.915Z,7.50
2023-04-26T09:30:46.824Z,7.50
2023-04-26T09:33:14.387Z,7.60
2023-04-26T09:35:44.558Z,7.70
2023-04-26T09:38:15.269Z,7.90
2023-04-26T09:40:45.977Z,8.00
2023-04-26T09:43:18.872Z,8.10
2023-04-26T09:45:50.722Z,8.10
2023-04-26T09:48:34.179Z,8.10
2023-04-26T09:51:04.213Z,8.20
2023-04-26T09:53:42.212Z,8.20
2023-04-26T09:56:20.890Z,8.20
2023-04-26T09:58:48.077Z,8.30
2023-04-26T10:01:17.364Z,8.40
2023-04-26T10:03:45.610Z,8.40
2023-04-26T10:06:13.824Z,8.40
2023-04-26T10:08:41.575Z,8.50
2023-04-26T10:11:09.610Z,8.60
2023-04-26T10:13:37.886Z,8.60
2023-04-26T10:16:06.315Z,9.20
2023-04-26T10:18:34.238Z,8.80
2023-04-26T10:21:19.794Z,8.90
2023-04-26T10:23:49.710Z,8.80
2023-04-26T10:26:55.625Z,8.90
2023-04-26T10:29:25.525Z,8.90
2023-04-26T10:34:31.943Z,9.20
2023-04-26T10:37:18.097Z,9.10
2023-04-26T10:39:47.430Z,9.40
2023-04-26T10:42:29.353Z,9.40
2023-04-26T10:44:58.867Z,9.70
2023-04-26T10:47:34.937Z,9.90
2023-04-26T10:50:06.313Z,9.80
2023-04-26T10:52:34.919Z,10.10
2023-04-26T10:55:02.535Z,10.20
2023-04-26T10:57:52.973Z,10.20
2023-04-26T11:00:28.565Z,10.50
2023-04-26T11:03:03.689Z,10.70
2023-04-26T11:05:51.802Z,11.00
2023-04-26T11:08:31.371Z,11.30
2023-04-26T11:11:12.249Z,11.70
2023-04-26T11:13:42.437Z,11.90
2023-04-26T11:16:12.475Z,11.90
2023-04-26T11:18:47.790Z,11.40
2023-04-26T11:21:15.132Z,11.70
2023-04-26T11:23:42.436Z,11.20
2023-04-26T11:26:09.881Z,12.00
2023-04-26T11:28:42.227Z,12.50
2023-04-26T11:31:09.956Z,12.90
2023-04-26T11:33:37.678Z,13.10
2023-04-26T11:36:05.639Z,13.20
2023-04-26T11:38:33.183Z,12.40
2023-04-26T11:41:04.553Z,12.60
2023-04-26T11:43:39.785Z,13.40
2023-04-26T11:46:09.192Z,13.50
2023-04-26T12:11:38.038Z,14.70
2023-04-26T12:14:05.949Z,14.60
2023-04-26T12:16:36.548Z,14.40
2023-04-26T12:19:08.109Z,14.70
2023-04-26T12:21:43.464Z,14.90
2023-04-26T12:26:51.836Z,16.20
2023-04-26T12:29:19.523Z,16.30
2023-04-26T12:31:47.493Z,16.00
2023-04-26T12:34:14.857Z,16.10
2023-04-26T12:36:42.613Z,16.10
2023-04-26T12:39:11.757Z,16.30
2023-04-26T12:41:39.618Z,16.30
2023-04-26T12:44:08.459Z,16.40
2023-04-26T12:46:36.686Z,15.90
2023-04-26T12:49:04.997Z,15.90
2023-04-26T12:51:32.589Z,15.70
2023-04-26T12:53:59.891Z,15.80
2023-04-26T12:56:27.324Z,15.80
2023-04-26T12:58:54.881Z,15.90
2023-04-26T13:01:22.235Z,15.80
2023-04-26T13:03:49.826Z,15.80
2023-04-26T13:06:17.558Z,16.10
2023-04-26T13:08:44.901Z,16.50
2023-04-26T13:11:12.324Z,16.20
2023-04-26T13:13:43.641Z,16.00
2023-04-26T13:16:12.930Z,16.00
2023-04-26T13:18:41.322Z,16.10
2023-04-26T13:21:08.666Z,15.50
2023-04-26T13:23:36.175Z,15.00
2023-04-26T13:26:03.515Z,14.40
2023-04-26T13:28:30.799Z,14.40
2023-04-26T13:30:58.367Z,15.20
2023-04-26T13:33:25.929Z,15.50
2023-04-26T13:35:53.295Z,15.60
2023-04-26T13:38:20.567Z,15.70
2023-04-26T13:40:47.965Z,16.00
2023-04-26T13:43:15.222Z,16.30
2023-04-26T13:45:43.306Z,16.40
2023-04-26T13:48:10.625Z,16.80
2023-04-26T13:50:38.037Z,16.80
2023-04-26T13:53:05.511Z,17.00
2023-04-26T13:55:32.880Z,17.00
2023-04-26T13:58:00.147Z,17.20
2023-04-26T14:00:27.475Z,17.30
2023-04-26T14:02:55.046Z,17.40
2023-04-26T14:05:22.868Z,17.50
2023-04-26T14:07:50.232Z,16.90
2023-04-26T14:10:17.808Z,16.00
2023-04-26T14:12:45.114Z,16.00
2023-04-26T14:15:12.989Z,15.90
2023-04-26T14:17:40.336Z,15.70
2023-04-26T14:20:12.047Z,16.20
2023-04-26T14:22:39.373Z,15.60
2023-04-26T14:25:07.041Z,15.80
2023-04-26T14:27:35.621Z,15.60
2023-04-26T14:30:03.275Z,16.00
2023-04-26T14:32:30.510Z,15.80
2023-04-26T14:34:58.220Z,15.90
2023-04-26T14:37:25.527Z,16.40
2023-04-26T14:39:53.010Z,15.80
2023-04-26T14:42:20.349Z,15.30
2023-04-26T14:44:47.701Z,15.30
2023-04-26T14:47:15.024Z,15.20
2023-04-26T14:49:42.307Z,14.90
2023-04-26T14:52:09.626Z,15.10
2023-04-26T14:54:40.674Z,15.90
2023-04-26T14:57:08.486Z,15.70
2023-04-26T14:59:37.117Z,15.80
2023-04-26T15:02:04.549Z,16.30
2023-04-26T15:04:32.320Z,16.90
2023-04-26T15:06:59.943Z,16.90
2023-04-26T15:09:29.008Z,16.90
2023-04-26T15:11:57.661Z,16.80
2023-04-26T15:14:25.130Z,16.40
2023-04-26T15:16:52.511Z,16.50
2023-04-26T15:19:19.820Z,15.90
2023-04-26T15:21:49.256Z,15.60
2023-04-26T15:24:16.786Z,16.10
2023-04-26T15:26:44.101Z,16.30
2023-04-26T15:29:11.563Z,16.20
2023-04-26T15:31:38.995Z,16.70
2023-04-26T15:34:06.468Z,16.90
2023-04-26T15:36:33.738Z,16.90
2023-04-26T15:39:01.103Z,16.90
2023-04-26T15:41:28.555Z,17.20
2023-04-26T15:43:56.129Z,17.60
2023-04-26T15:46:23.541Z,18.00
2023-04-26T15:48:50.980Z,17.90
2023-04-26T15:51:20.401Z,18.00
2023-04-26T15:53:47.840Z,17.90
2023-04-26T15:56:16.864Z,17.80
2023-04-26T15:58:48.060Z,17.40
2023-04-26T16:01:17.180Z,17.20
2023-04-26T16:03:47.628Z,17.10
2023-04-26T16:06:15.446Z,17.00
2023-04-26T16:08:42.851Z,16.80
2023-04-26T16:11:10.240Z,16.50
2023-04-26T16:13:37.597Z,16.00
2023-04-26T16:16:08.512Z,15.70
2023-04-26T16:18:35.942Z,15.40
2023-04-26T16:21:07.444Z,15.00
2023-04-26T16:23:34.804Z,14.70
2023-04-26T16:26:03.138Z,14.50
2023-04-26T16:28:30.713Z,14.50
2023-04-26T16:30:58.390Z,14.50
2023-04-26T16:33:26.148Z,14.30
2023-04-26T16:35:55.012Z,14.10
2023-04-26T16:38:23.077Z,13.80
2023-04-26T16:40:59.856Z,13.60
2023-04-26T16:48:37.978Z,13.20
2023-04-26T16:51:08.152Z,13.00
2023-04-26T16:53:41.279Z,13.00
2023-04-26T16:56:08.857Z,12.70
2023-04-26T16:58:36.292Z,13.10
2023-04-26T17:01:03.767Z,12.30
2023-04-26T17:03:31.306Z,12.20
2023-04-26T17:06:01.885Z,12.20
2023-04-26T17:08:30.520Z,12.00
2023-04-26T17:10:57.920Z,11.90
2023-04-26T17:13:25.150Z,12.00
2023-04-26T17:15:54.626Z,11.80
2023-04-26T17:18:21.922Z,11.70
2023-04-26T17:20:49.841Z,11.90
2023-04-26T17:23:17.313Z,11.80
2023-04-26T17:25:45.041Z,11.70
2023-04-26T17:28:12.403Z,11.60
2023-04-26T17:30:43.151Z,11.60
2023-04-26T17:33:10.684Z,11.50
2023-04-26T17:35:38.376Z,11.50
2023-04-26T17:38:06.928Z,11.40
2023-04-26T17:40:34.382Z,11.40
2023-04-26T17:43:02.122Z,11.30
2023-04-26T17:45:30.592Z,11.30
2023-04-26T17:47:58.262Z,11.30
2023-04-26T17:50:25.508Z,11.30
2023-04-26T17:52:52.915Z,11.10
2023-04-26T17:55:20.305Z,11.10
2023-04-26T17:57:47.768Z,11.00
2023-04-26T18:00:15.611Z,11.00
2023-04-26T18:02:48.899Z,10.70
2023-04-26T18:05:20.790Z,10.70
2023-04-26T18:07:50.817Z,10.60
2023-04-26T18:10:18.212Z,10.50
2023-04-26T18:12:45.633Z,10.60
2023-04-26T18:15:14.260Z,10.40
2023-04-26T18:17:42.151Z,10.40
2023-04-26T18:20:10.162Z,10.50
2023-04-26T18:22:37.411Z,10.30
2023-04-26T18:25:08.636Z,10.40
2023-04-26T18:27:35.907Z,10.20
2023-04-26T18:30:04.701Z,10.10
2023-04-26T18:32:32.368Z,10.10
2023-04-26T18:35:00.955Z,10.10
2023-04-26T18:37:28.570Z,10.00
2023-04-26T18:39:55.882Z,9.90
2023-04-26T18:42:23.128Z,9.90
2023-04-26T18:44:50.586Z,9.80
2023-04-26T18:47:17.919Z,9.80
2023-04-26T18:49:45.165Z,9.70
2023-04-26T18:52:12.525Z,9.70
2023-04-26T18:54:39.794Z,9.70
2023-04-26T18:57:07.070Z,9.60
2023-04-26T18:59:34.333Z,9.60
2023-04-26T19:02:01.775Z,9.60
2023-04-26T19:04:29.296Z,9.50
2023-04-26T19:06:56.939Z,9.50
2023-04-26T19:09:24.354Z,9.60
2023-04-26T19:11:51.624Z,9.40
2023-04-26T19:14:19.064Z,9.40
2023-04-26T19:16:46.570Z,9.20
2023-04-26T19:19:13.851Z,9.20
2023-04-26T19:21:41.104Z,9.20
2023-04-26T19:24:08.661Z,9.10
2023-04-26T19:26:37.845Z,9.00
2023-04-26T20:03:37.867Z,8.40
2023-04-26T20:06:05.754Z,8.40
2023-04-26T20:08:34.621Z,8.40
2023-04-26T20:11:04.822Z,8.30
2023-04-26T20:13:32.769Z,8.30
2023-04-26T20:16:00.184Z,8.20
2023-04-26T20:18:27.603Z,8.20
2023-04-26T20:20:54.960Z,8.20
2023-04-26T20:23:22.249Z,8.10
2023-04-26T20:25:51.308Z,8.20
2023-04-26T20:28:18.963Z,8.20
2023-04-26T20:30:46.565Z,8.10
2023-04-26T20:33:14.023Z,7.90
2023-04-26T20:35:41.576Z,8.00
2023-04-26T21:10:10.102Z,7.20
2023-04-26T21:12:37.513Z,7.20
2023-04-26T21:15:05.593Z,7.00
2023-04-26T21:17:32.917Z,7.00
2023-04-26T21:20:00.299Z,6.90
2023-04-26T21:22:27.723Z,6.90
2023-04-26T21:24:55.002Z,6.90
2023-04-26T21:27:22.411Z,6.90
2023-04-26T21:29:49.928Z,6.90
2023-04-26T21:32:17.515Z,6.90
2023-04-26T21:34:44.927Z,6.90
